Time;durP1;ratioP1;P1;durP2;ratioP2;P2;SDS_P1;SDS_P2;PMS_P1;PMS_P2;Temp;Humidity;BMP_temperature;BMP_pressure;BME280_temperature;BME280_humidity;BME280_pressure;Samples;Min_cycle;Max_cycle;Signal;HPM_P1;HPM_P2
2021/11/02 00:01:45;;;;;;;7.53;5.10;;;9.10;98.30;;;;;;5166448;23;20931;-82
2021/11/02 00:03:50;;;;;;;8.53;4.60;;;9.00;98.30;;;;;;5174668;23;20442;-81
2021/11/02 00:05:53;;;;;;;11.10;4.97;;;9.00;98.30;;;;;;5166668;23;20427;-81
2021/11/02 00:07:56;;;;;;;7.33;4.90;;;8.90;98.30;;;;;;5165890;23;20431;-81
2021/11/02 00:10:05;;;;;;;7.30;4.60;;;9.00;98.30;;;;;;5174820;23;20426;-81
2021/11/02 00:12:09;;;;;;;7.93;4.60;;;8.90;98.30;;;;;;5174577;23;20429;-81
2021/11/02 00:14:14;;;;;;;8.80;4.50;;;9.00;98.30;;;;;;5166350;23;20431;-81
2021/11/02 00:16:21;;;;;;;7.53;4.90;;;9.00;98.30;;;;;;5166741;23;20436;-81
2021/11/02 00:18:25;;;;;;;12.90;5.10;;;9.00;98.30;;;;;;5174499;23;20439;-81
2021/11/02 00:20:30;;;;;;;9.00;4.10;;;8.90;98.30;;;;;;5174826;23;20419;-81
2021/11/02 00:22:35;;;;;;;7.07;4.60;;;8.90;98.30;;;;;;5174348;23;20451;-81
2021/11/02 00:24:56;;;;;;;10.70;4.93;;;9.00;98.30;;;;;;5166369;23;20443;-81
2021/11/02 00:26:58;;;;;;;8.70;5.03;;;9.00;98.30;;;;;;5174221;23;20713;-81
2021/11/02 00:29:01;;;;;;;11.43;5.07;;;9.00;98.30;;;;;;5165814;23;20438;-81
2021/11/02 00:31:05;;;;;;;7.07;4.63;;;8.90;98.30;;;;;;5166266;23;20429;-81
2021/11/02 00:33:09;;;;;;;7.67;4.43;;;8.90;98.30;;;;;;5174100;23;20462;-81
2021/11/02 00:35:12;;;;;;;5.80;3.97;;;8.90;98.30;;;;;;5166129;23;20934;-81
2021/11/02 00:37:16;;;;;;;5.33;4.83;;;8.90;98.30;;;;;;5165747;23;20445;-81
2021/11/02 00:39:19;;;;;;;5.17;3.90;;;8.80;98.30;;;;;;5174844;23;20427;-81
2021/11/02 00:41:22;;;;;;;5.73;4.30;;;8.80;98.30;;;;;;5165592;23;20969;-81
2021/11/02 00:43:26;;;;;;;6.70;4.40;;;8.80;98.30;;;;;;5165743;23;20531;-81
2021/11/02 00:45:30;;;;;;;9.20;4.70;;;8.80;98.30;;;;;;5165928;23;20436;-81
2021/11/02 00:47:34;;;;;;;10.60;5.23;;;8.80;98.30;;;;;;5165947;23;20425;-81
2021/11/02 00:49:38;;;;;;;9.27;4.70;;;8.80;98.30;;;;;;5174162;23;20420;-81
2021/11/02 00:51:41;;;;;;;7.40;4.87;;;8.70;98.30;;;;;;5174291;23;20482;-81
2021/11/02 00:53:46;;;;;;;7.20;4.80;;;8.70;98.30;;;;;;5174142;23;20945;-81
2021/11/02 00:55:49;;;;;;;7.33;5.10;;;8.70;98.30;;;;;;5173987;23;20420;-81
2021/11/02 00:57:52;;;;;;;7.67;4.47;;;8.70;98.30;;;;;;5165420;23;20804;-81
2021/11/02 00:59:57;;;;;;;8.03;5.10;;;8.70;98.30;;;;;;5166126;23;20441;-81
2021/11/02 01:02:00;;;;;;;10.50;4.90;;;8.60;98.30;;;;;;5174490;23;20448;-80
2021/11/02 01:04:05;;;;;;;5.63;4.67;;;8.60;98.30;;;;;;5167712;23;20428;-80
2021/11/02 01:06:08;;;;;;;12.33;5.10;;;8.60;98.30;;;;;;5167789;23;20514;-80
2021/11/02 01:08:11;;;;;;;8.03;4.53;;;8.60;98.30;;;;;;5175591;23;20503;-81
2021/11/02 01:10:16;;;;;;;6.50;5.13;;;8.60;98.30;;;;;;5175994;23;20791;-80
2021/11/02 01:12:20;;;;;;;7.20;4.83;;;8.70;98.30;;;;;;5167612;23;20450;-81
2021/11/02 01:14:23;;;;;;;9.63;6.10;;;8.60;98.30;;;;;;5167697;23;20424;-81
2021/11/02 01:16:26;;;;;;;5.57;4.47;;;8.60;98.30;;;;;;5176500;23;20969;-81
2021/11/02 01:18:29;;;;;;;8.90;4.43;;;8.50;98.30;;;;;;5167677;23;20770;-81
2021/11/02 01:20:32;;;;;;;7.63;4.93;;;8.50;98.30;;;;;;5176128;23;20418;-82
2021/11/02 01:22:35;;;;;;;7.57;5.30;;;8.50;98.30;;;;;;5167376;23;20452;-81
2021/11/02 01:24:39;;;;;;;11.03;5.07;;;8.60;98.30;;;;;;5167634;23;20939;-81
2021/11/02 01:26:43;;;;;;;8.10;5.43;;;8.60;98.30;;;;;;5167898;23;20500;-81
2021/11/02 01:28:46;;;;;;;11.33;4.50;;;8.50;98.30;;;;;;5175397;23;20427;-81
2021/11/02 01:30:49;;;;;;;9.77;5.00;;;8.50;98.30;;;;;;5175957;23;20417;-81
2021/11/02 01:32:53;;;;;;;9.13;4.63;;;8.50;98.30;;;;;;5175669;23;20452;-81
2021/11/02 01:34:55;;;;;;;10.23;5.20;;;8.50;98.30;;;;;;5175854;23;20439;-81
2021/11/02 01:36:59;;;;;;;8.07;4.73;;;8.40;98.30;;;;;;5168215;23;20450;-81
2021/11/02 01:39:03;;;;;;;5.73;4.67;;;8.50;98.30;;;;;;5176142;23;20484;-81
2021/11/02 01:41:06;;;;;;;8.87;4.53;;;8.50;98.30;;;;;;5167958;23;20444;-82
2021/11/02 01:43:12;;;;;;;9.90;4.90;;;8.50;98.30;;;;;;5167215;23;20444;-81
2021/11/02 01:45:17;;;;;;;6.50;4.97;;;8.50;98.30;;;;;;5168365;23;20791;-81
2021/11/02 01:47:20;;;;;;;7.40;5.07;;;8.50;98.30;;;;;;5175506;23;20431;-81
2021/11/02 01:49:24;;;;;;;8.17;5.17;;;8.50;98.30;;;;;;5176105;23;20888;-81
2021/11/02 01:51:32;;;;;;;6.60;5.13;;;8.50;98.30;;;;;;5175729;23;20485;-81
2021/11/02 01:53:35;;;;;;;7.00;5.17;;;8.50;98.30;;;;;;5175618;23;20451;-81
2021/11/02 01:55:43;;;;;;;6.50;4.80;;;8.50;98.30;;;;;;5176582;23;20902;-81
2021/11/02 01:57:48;;;;;;;7.67;4.97;;;8.50;98.30;;;;;;5175724;23;20435;-81
2021/11/02 01:59:53;;;;;;;8.13;4.60;;;8.40;98.30;;;;;;5175493;23;20428;-81
2021/11/02 02:02:02;;;;;;;8.77;5.30;;;8.50;98.30;;;;;;5167105;23;20428;-81
2021/11/02 02:04:13;;;;;;;8.70;5.80;;;8.50;98.30;;;;;;5167129;23;20912;-81
2021/11/02 02:06:26;;;;;;;12.40;5.33;;;8.50;98.30;;;;;;5167601;23;20432;-81
2021/11/02 02:08:39;;;;;;;7.70;5.23;;;8.50;98.30;;;;;;5175560;23;20458;-81
2021/11/02 02:10:51;;;;;;;6.37;5.70;;;8.50;98.30;;;;;;5167507;23;20516;-82
2021/11/02 02:13:03;;;;;;;6.10;4.73;;;8.40;98.30;;;;;;5166952;23;20455;-81
2021/11/02 02:15:13;;;;;;;11.60;5.67;;;8.40;98.30;;;;;;5175175;23;20428;-81
2021/11/02 02:17:21;;;;;;;7.40;4.70;;;8.40;98.30;;;;;;5167069;23;20442;-81
2021/11/02 02:19:36;;;;;;;10.20;6.10;;;8.40;98.30;;;;;;5175280;23;20447;-81
2021/11/02 02:21:47;;;;;;;7.97;4.77;;;8.40;98.30;;;;;;5174791;23;20416;-81
2021/11/02 02:24:09;;;;;;;10.30;6.00;;;8.40;98.30;;;;;;5174592;23;20452;-80
2021/11/02 02:26:37;;;;;;;7.20;5.63;;;8.30;98.30;;;;;;5174751;23;20427;-80
2021/11/02 02:28:44;;;;;;;8.97;5.80;;;8.30;98.30;;;;;;5174701;23;20428;-81
2021/11/02 02:30:52;;;;;;;7.47;5.17;;;8.30;98.30;;;;;;5166847;23;20486;-80
2021/11/02 02:32:56;;;;;;;10.60;6.27;;;8.30;98.30;;;;;;5174890;23;20473;-80
2021/11/02 02:35:01;;;;;;;13.03;5.60;;;8.30;98.30;;;;;;5174531;23;20920;-80
2021/11/02 02:37:07;;;;;;;8.73;6.10;;;8.30;98.30;;;;;;5166402;23;20420;-80
2021/11/02 02:39:11;;;;;;;11.90;6.73;;;8.20;98.30;;;;;;5166334;23;21456;-81
2021/11/02 02:41:20;;;;;;;8.20;5.67;;;8.30;98.30;;;;;;5174742;23;20433;-81
2021/11/02 02:43:23;;;;;;;7.00;5.80;;;8.30;98.30;;;;;;5174994;23;20441;-82
2021/11/02 02:45:30;;;;;;;7.10;5.57;;;8.30;98.30;;;;;;5174654;23;20741;-81
2021/11/02 02:47:34;;;;;;;11.73;6.27;;;8.30;98.30;;;;;;5166298;23;20428;-81
2021/11/02 02:49:37;;;;;;;12.07;6.33;;;8.30;98.30;;;;;;5174516;23;20399;-81
2021/11/02 02:51:43;;;;;;;12.37;6.20;;;8.30;98.30;;;;;;5174282;23;20427;-80
2021/11/02 02:53:49;;;;;;;11.43;6.23;;;8.30;98.30;;;;;;5174976;23;21340;-81
2021/11/02 02:55:54;;;;;;;12.20;5.40;;;8.30;98.30;;;;;;5166628;23;20444;-82
2021/11/02 02:57:58;;;;;;;7.30;5.20;;;8.20;98.30;;;;;;5165871;23;20437;-81
2021/11/02 03:00:02;;;;;;;9.07;5.27;;;8.20;98.30;;;;;;5166056;23;20451;-81
2021/11/02 03:02:12;;;;;;;7.77;5.83;;;8.20;98.30;;;;;;5174577;23;20429;-81
2021/11/02 03:04:19;;;;;;;7.10;5.17;;;8.20;98.30;;;;;;5166326;23;20413;-81
2021/11/02 03:06:31;;;;;;;7.53;5.40;;;8.20;98.30;;;;;;5174227;23;20424;-81
2021/11/02 03:08:35;;;;;;;9.73;5.37;;;8.20;98.30;;;;;;5175084;23;20900;-82
2021/11/02 03:10:39;;;;;;;16.97;5.90;;;8.20;98.30;;;;;;5166864;23;20441;-82
2021/11/02 03:12:47;;;;;;;9.20;6.13;;;8.20;98.30;;;;;;5175349;23;21053;-82
2021/11/02 03:15:04;;;;;;;9.07;6.10;;;8.20;98.30;;;;;;5166213;23;20415;-81
2021/11/02 03:17:13;;;;;;;12.47;6.40;;;8.20;98.30;;;;;;5173455;23;20447;-81
2021/11/02 03:20:05;;;;;;;8.40;6.20;;;8.20;98.30;;;;;;5165669;23;20592;-81
2021/11/02 03:43:56;;;;;;;10.07;7.00;;;7.90;98.30;;;;;;5174636;23;20448;-82
2021/11/02 03:48:43;;;;;;;12.10;7.40;;;7.90;98.30;;;;;;5166184;23;20427;-82
2021/11/02 03:51:05;;;;;;;7.53;6.10;;;7.90;98.30;;;;;;5175610;23;20413;-82
2021/11/02 03:55:52;;;;;;;10.70;6.90;;;7.90;98.30;;;;;;5089578;23;20441;-83
2021/11/02 03:57:58;;;;;;;13.53;7.73;;;7.80;98.30;;;;;;5134576;23;21124;-82
2021/11/02 04:00:18;;;;;;;7.67;6.07;;;7.80;98.30;;;;;;5166614;23;20521;-82
2021/11/02 04:24:36;;;;;;;9.63;7.30;;;7.60;98.30;;;;;;5174999;23;20431;-82
2021/11/02 04:27:09;;;;;;;14.43;7.77;;;7.70;98.30;;;;;;5175455;23;20446;-83
2021/11/02 05:07:51;;;;;;;11.93;6.67;;;7.40;98.30;;;;;;5168269;23;20488;-83
2021/11/02 05:10:14;;;;;;;8.90;7.53;;;7.40;98.30;;;;;;5168403;23;20458;-83
2021/11/02 05:12:54;;;;;;;15.60;7.70;;;7.50;98.30;;;;;;5177240;23;20775;-83
2021/11/02 05:48:17;;;;;;;10.80;7.10;;;7.30;98.30;;;;;;5166301;23;20726;-89
2021/11/02 05:50:47;;;;;;;10.57;8.00;;;7.40;98.30;;;;;;5175422;23;20419;-85
2021/11/02 05:58:04;;;;;;;9.43;6.67;;;7.40;98.30;;;;;;5097196;23;20518;-85
2021/11/02 06:00:14;;;;;;;12.47;6.83;;;7.40;98.30;;;;;;5136177;23;20442;-85
2021/11/02 06:02:34;;;;;;;10.03;7.47;;;7.40;98.30;;;;;;5173683;23;20450;-85
2021/11/02 06:07:23;;;;;;;10.60;7.60;;;7.50;98.30;;;;;;5172470;23;20528;-86
2021/11/02 06:09:35;;;;;;;11.30;7.40;;;7.40;98.30;;;;;;5173878;23;20454;-85
2021/11/02 06:28:38;;;;;;;9.10;7.00;;;7.40;98.30;;;;;;5175376;23;20864;-85
2021/11/02 06:30:46;;;;;;;12.23;7.77;;;7.40;98.30;;;;;;5167744;23;20428;-85
2021/11/02 06:33:01;;;;;;;9.63;6.90;;;7.50;98.30;;;;;;5175376;23;20471;-85
2021/11/02 06:35:14;;;;;;;10.43;7.80;;;7.50;98.30;;;;;;5175919;23;20483;-85
2021/11/02 06:37:31;;;;;;;10.93;8.20;;;7.50;98.30;;;;;;5175294;23;20450;-85
2021/11/02 06:39:54;;;;;;;13.93;7.80;;;7.50;98.30;;;;;;5174984;23;20430;-85
2021/11/02 06:42:15;;;;;;;9.47;7.50;;;7.50;98.30;;;;;;5175508;23;20474;-85
2021/11/02 06:45:09;;;;;;;9.30;8.33;;;7.40;98.30;;;;;;5175012;23;20452;-86
2021/11/02 06:50:20;;;;;;;12.53;7.63;;;7.40;98.30;;;;;;5112940;23;20436;-85
2021/11/02 06:55:09;;;;;;;9.27;7.70;;;7.60;98.30;;;;;;5176517;23;20899;-85
2021/11/02 06:57:49;;;;;;;11.83;7.70;;;7.50;98.30;;;;;;5167644;23;20417;-85
2021/11/02 07:00:27;;;;;;;10.53;8.30;;;7.60;98.30;;;;;;5176133;23;20507;-85
2021/11/02 07:19:12;;;;;;;14.13;8.03;;;7.80;98.30;;;;;;5162627;23;20424;-86
2021/11/02 07:21:23;;;;;;;11.63;8.27;;;7.80;98.30;;;;;;5176102;23;20441;-86
2021/11/02 07:23:38;;;;;;;11.60;7.73;;;7.80;98.30;;;;;;5175805;23;20474;-85
2021/11/02 07:25:49;;;;;;;9.83;7.80;;;7.80;98.30;;;;;;5175791;23;20484;-85
2021/11/02 07:28:10;;;;;;;11.57;7.70;;;7.80;98.30;;;;;;5167059;23;20878;-85
2021/11/02 08:46:51;;;;;;;13.13;9.57;;;8.70;98.30;;;;;;5167125;23;20419;-85
2021/11/02 08:48:56;;;;;;;11.53;8.30;;;8.70;98.30;;;;;;5174991;23;20428;-85
2021/11/02 08:51:00;;;;;;;14.90;8.77;;;8.80;98.30;;;;;;5175218;23;20420;-85
2021/11/02 08:53:09;;;;;;;19.23;9.50;;;8.90;98.30;;;;;;5174739;23;20444;-85
2021/11/02 08:55:12;;;;;;;9.83;7.93;;;8.90;98.30;;;;;;5175551;23;20401;-85
2021/11/02 08:57:15;;;;;;;10.97;8.40;;;8.90;98.30;;;;;;5175913;23;20425;-85
2021/11/02 08:59:18;;;;;;;17.60;8.20;;;9.00;98.30;;;;;;5174928;23;20436;-85
2021/11/02 09:01:24;;;;;;;30.00;14.17;;;9.10;98.30;;;;;;5174082;23;20474;-84
2021/11/02 09:03:33;;;;;;;39.73;23.70;;;9.30;98.30;;;;;;5174106;23;20446;-85
2021/11/02 09:05:39;;;;;;;23.33;11.53;;;9.50;98.30;;;;;;5175741;23;20837;-85
2021/11/02 09:07:45;;;;;;;8.90;7.67;;;9.50;98.30;;;;;;5174999;23;20507;-85
2021/11/02 09:09:50;;;;;;;12.00;9.10;;;9.70;98.30;;;;;;5176809;23;20490;-84
2021/11/02 09:11:56;;;;;;;17.00;8.53;;;9.60;98.30;;;;;;5177166;23;20420;-85
2021/11/02 09:13:59;;;;;;;10.40;9.30;;;9.60;98.30;;;;;;5176547;23;20461;-83
2021/11/02 09:16:04;;;;;;;9.67;8.10;;;9.70;98.30;;;;;;5176530;23;20428;-84
2021/11/02 09:18:09;;;;;;;10.70;7.97;;;9.70;98.30;;;;;;5176116;23;20423;-84
2021/11/02 09:20:16;;;;;;;12.37;7.83;;;9.70;98.30;;;;;;5176715;23;20419;-84
2021/11/02 09:22:20;;;;;;;11.87;7.53;;;9.80;98.30;;;;;;5176665;23;20448;-84
2021/11/02 09:27:24;;;;;;;10.23;6.70;;;9.90;98.30;;;;;;5178485;23;20434;-84
2021/11/02 09:29:28;;;;;;;12.73;7.43;;;10.00;98.30;;;;;;5176612;23;20424;-84
2021/11/02 09:31:32;;;;;;;11.53;7.43;;;10.00;98.30;;;;;;5176893;23;20504;-84
2021/11/02 09:33:36;;;;;;;10.63;7.10;;;10.10;98.30;;;;;;5176756;23;20447;-84
2021/11/02 09:35:40;;;;;;;15.50;7.23;;;10.20;98.30;;;;;;5176485;23;20451;-84
2021/11/02 09:37:48;;;;;;;11.50;6.67;;;10.20;98.30;;;;;;5176799;23;20429;-84
2021/11/02 09:39:53;;;;;;;11.77;8.00;;;10.30;98.30;;;;;;5176590;23;20426;-84
2021/11/02 09:42:24;;;;;;;9.87;7.50;;;10.30;98.30;;;;;;5176812;23;20448;-85
2021/11/02 09:44:53;;;;;;;36.27;20.90;;;10.40;98.30;;;;;;5177454;23;20424;-84
2021/11/02 09:47:23;;;;;;;11.87;7.10;;;10.50;98.30;;;;;;5177842;23;20420;-85
2021/11/02 09:50:11;;;;;;;11.17;7.17;;;10.70;98.30;;;;;;5177982;23;20510;-85
2021/11/02 09:52:46;;;;;;;8.80;7.20;;;11.10;98.30;;;;;;5118622;23;20839;-85
2021/11/02 09:55:20;;;;;;;11.20;7.30;;;11.60;98.30;;;;;;5177616;23;20513;-84
2021/11/02 09:57:39;;;;;;;14.97;6.83;;;11.90;98.30;;;;;;5110470;23;20426;-84
2021/11/02 10:00:08;;;;;;;11.83;6.63;;;12.00;98.30;;;;;;5176758;23;20741;-83
2021/11/02 10:02:40;;;;;;;13.87;7.10;;;12.10;98.30;;;;;;5176419;23;20450;-84
2021/11/02 10:04:57;;;;;;;5.77;4.70;;;12.20;98.30;;;;;;5176521;23;20508;-84
2021/11/02 10:07:19;;;;;;;8.47;5.10;;;11.90;98.30;;;;;;5176175;23;20505;-83
2021/11/02 10:09:37;;;;;;;8.50;5.47;;;11.70;98.30;;;;;;5175469;23;20426;-84
2021/11/02 10:11:45;;;;;;;8.40;5.77;;;11.60;98.30;;;;;;5176157;23;20967;-85
2021/11/02 10:14:01;;;;;;;8.87;6.23;;;11.70;98.30;;;;;;5176360;23;20451;-83
2021/11/02 10:16:18;;;;;;;8.80;5.63;;;12.00;98.30;;;;;;5176701;23;20406;-84
2021/11/02 10:18:55;;;;;;;7.90;5.60;;;12.10;98.30;;;;;;5176272;23;20427;-84
2021/11/02 10:21:26;;;;;;;8.47;6.03;;;12.10;98.30;;;;;;5166358;23;20953;-84
2021/11/02 10:23:44;;;;;;;7.00;5.40;;;12.10;98.30;;;;;;5166303;23;20463;-84
2021/11/02 10:26:23;;;;;;;9.30;5.83;;;12.00;98.30;;;;;;5174781;23;20554;-83
2021/11/02 10:28:52;;;;;;;7.10;5.70;;;12.10;98.30;;;;;;5166071;23;20469;-84
2021/11/02 10:30:56;;;;;;;8.87;6.83;;;12.10;98.30;;;;;;5174959;23;20511;-84
2021/11/02 10:33:04;;;;;;;11.40;6.17;;;12.20;98.30;;;;;;5174318;23;20756;-84
2021/11/02 10:35:20;;;;;;;8.97;6.70;;;12.30;98.30;;;;;;5175379;23;20422;-84
2021/11/02 10:37:32;;;;;;;6.77;5.77;;;12.40;98.30;;;;;;5166300;23;20421;-84
2021/11/02 10:39:51;;;;;;;8.93;6.57;;;12.60;98.30;;;;;;5166345;23;20409;-84
2021/11/02 10:42:20;;;;;;;15.47;10.60;;;12.80;98.30;;;;;;5173548;23;20505;-84
2021/11/02 10:44:29;;;;;;;9.33;6.43;;;13.00;98.30;;;;;;5166842;23;20427;-84
2021/11/02 10:46:34;;;;;;;7.93;6.17;;;13.50;98.30;;;;;;5174807;23;20420;-84
2021/11/02 10:48:42;;;;;;;10.40;6.30;;;13.70;98.30;;;;;;5174442;23;20429;-84
2021/11/02 10:50:48;;;;;;;9.93;6.13;;;13.80;98.30;;;;;;5166636;23;20492;-84
2021/11/02 10:52:56;;;;;;;9.27;6.37;;;13.90;98.30;;;;;;5166287;23;20530;-84
2021/11/02 10:55:08;;;;;;;8.50;5.97;;;13.80;98.30;;;;;;5174699;23;20424;-84
2021/11/02 10:57:22;;;;;;;11.63;6.00;;;13.90;98.30;;;;;;5174339;23;20429;-84
2021/11/02 10:59:31;;;;;;;8.30;6.20;;;13.90;98.30;;;;;;5166050;23;20447;-84
2021/11/02 11:01:35;;;;;;;8.77;6.03;;;14.10;98.30;;;;;;5174903;23;20583;-84
2021/11/02 11:03:41;;;;;;;10.17;6.60;;;14.30;98.30;;;;;;5175951;23;20448;-82
2021/11/02 11:05:46;;;;;;;10.70;6.00;;;14.30;98.30;;;;;;5178675;23;20483;-82
2021/11/02 11:07:53;;;;;;;9.13;6.07;;;14.60;98.30;;;;;;5169768;23;20495;-82
2021/11/02 11:09:56;;;;;;;5.90;5.30;;;14.50;98.30;;;;;;5178317;23;20491;-82
2021/11/02 11:12:01;;;;;;;8.73;5.50;;;14.70;98.30;;;;;;5178992;23;20504;-82
2021/11/02 11:14:09;;;;;;;8.37;6.07;;;14.30;98.30;;;;;;5174312;23;20423;-82
2021/11/02 11:16:15;;;;;;;8.00;5.77;;;14.00;98.30;;;;;;5174464;23;20498;-82
2021/11/02 11:18:23;;;;;;;11.60;6.90;;;13.80;98.30;;;;;;5165768;23;20428;-82
2021/11/02 11:20:26;;;;;;;7.00;6.30;;;13.90;98.30;;;;;;5165487;23;20498;-82
2021/11/02 11:22:36;;;;;;;9.93;6.80;;;13.80;98.30;;;;;;5174067;23;20826;-82
2021/11/02 11:24:52;;;;;;;11.33;7.40;;;13.80;98.30;;;;;;5175341;23;20419;-82
2021/11/02 11:26:56;;;;;;;7.40;6.20;;;13.80;98.30;;;;;;5175695;23;20420;-84
2021/11/02 11:29:00;;;;;;;10.67;7.27;;;14.10;98.30;;;;;;5174051;23;20430;-84
2021/11/02 11:31:05;;;;;;;17.83;12.63;;;14.70;98.30;;;;;;5165723;23;20438;-84
2021/11/02 11:33:11;;;;;;;23.27;16.37;;;14.70;98.30;;;;;;5165445;23;20464;-82
2021/11/02 11:35:15;;;;;;;39.00;29.47;;;15.00;98.30;;;;;;5166544;23;20420;-82
2021/11/02 11:37:23;;;;;;;21.17;13.70;;;15.30;98.30;;;;;;5176572;23;20485;-83
2021/11/02 11:39:29;;;;;;;8.97;7.03;;;16.40;98.30;;;;;;5176210;23;20498;-82
2021/11/02 11:41:34;;;;;;;10.97;7.60;;;17.40;98.10;;;;;;5176823;23;20404;-83
2021/11/02 11:43:40;;;;;;;8.40;6.73;;;18.10;96.10;;;;;;5175519;23;20458;-83
2021/11/02 11:45:52;;;;;;;10.90;7.50;;;18.60;95.50;;;;;;5179000;23;20432;-83
2021/11/02 11:48:08;;;;;;;8.87;6.70;;;19.10;92.70;;;;;;5177082;23;20443;-84
2021/11/02 11:50:19;;;;;;;10.03;7.50;;;19.50;92.50;;;;;;5169370;23;20452;-82
2021/11/02 11:52:24;;;;;;;9.00;6.90;;;20.40;89.50;;;;;;5167849;23;20456;-83
2021/11/02 11:54:31;;;;;;;34.07;30.33;;;20.90;87.40;;;;;;5175459;23;20428;-83
2021/11/02 11:56:37;;;;;;;9.70;8.70;;;21.00;88.40;;;;;;5176349;23;20440;-83
2021/11/02 11:58:50;;;;;;;10.90;7.83;;;21.90;84.50;;;;;;5182947;23;20420;-83
2021/11/02 12:00:55;;;;;;;8.93;7.23;;;21.90;83.10;;;;;;5174997;23;20459;-83
2021/11/02 12:03:02;;;;;;;9.40;7.43;;;21.70;83.50;;;;;;5182784;23;20446;-83
2021/11/02 12:05:17;;;;;;;11.77;7.47;;;21.40;84.60;;;;;;5182949;23;20400;-83
2021/11/02 12:07:32;;;;;;;8.30;7.50;;;21.90;83.40;;;;;;5182625;23;20427;-83
2021/11/02 12:09:41;;;;;;;7.73;7.00;;;22.20;81.70;;;;;;5182472;23;20443;-83
2021/11/02 12:11:45;;;;;;;7.90;7.10;;;21.60;83.50;;;;;;5184463;23;20447;-83
2021/11/02 12:13:50;;;;;;;10.97;7.67;;;21.90;82.30;;;;;;5173361;23;20512;-83
2021/11/02 12:16:09;;;;;;;9.37;7.47;;;21.40;82.60;;;;;;5175208;23;20456;-83
2021/11/02 12:18:19;;;;;;;12.10;7.37;;;20.30;85.00;;;;;;5176092;23;20411;-83
2021/11/02 12:20:24;;;;;;;11.13;7.90;;;20.00;86.40;;;;;;5175688;23;20452;-83
2021/11/02 12:22:36;;;;;;;10.30;7.60;;;20.00;86.90;;;;;;5172977;23;21137;-83
2021/11/02 12:24:41;;;;;;;8.60;7.30;;;20.30;86.50;;;;;;5181849;23;20428;-83
2021/11/02 12:26:46;;;;;;;7.20;6.47;;;21.10;84.70;;;;;;5172792;23;20431;-83
2021/11/02 12:28:49;;;;;;;11.27;7.40;;;21.60;84.40;;;;;;5182440;23;20423;-83
2021/11/02 12:30:52;;;;;;;12.20;7.80;;;21.50;82.40;;;;;;5181041;23;20412;-83
2021/11/02 12:32:59;;;;;;;11.47;7.33;;;20.10;84.70;;;;;;5182092;23;20467;-83
2021/11/02 12:35:12;;;;;;;10.23;7.50;;;19.20;87.20;;;;;;5172946;23;20885;-83
2021/11/02 12:37:17;;;;;;;9.50;7.50;;;18.50;89.30;;;;;;5181858;23;20794;-82
2021/11/02 12:39:26;;;;;;;9.23;7.00;;;18.20;90.50;;;;;;5172505;23;20759;-83
2021/11/02 12:41:29;;;;;;;11.20;7.27;;;18.00;90.90;;;;;;5172842;23;21022;-82
2021/11/02 12:43:35;;;;;;;10.80;6.70;;;18.30;91.50;;;;;;5182326;23;20474;-83
2021/11/02 12:45:41;;;;;;;10.60;7.80;;;19.40;90.90;;;;;;5181502;23;20456;-83
2021/11/02 12:47:47;;;;;;;9.50;7.00;;;21.10;87.10;;;;;;5180603;23;20424;-83
2021/11/02 12:49:53;;;;;;;7.90;6.43;;;22.40;82.20;;;;;;5174304;23;20407;-83
2021/11/02 12:52:04;;;;;;;8.67;6.17;;;23.20;80.60;;;;;;5174273;23;20447;-83
2021/11/02 12:54:14;;;;;;;8.30;7.40;;;23.70;78.30;;;;;;5166128;23;20527;-83
2021/11/02 12:56:20;;;;;;;9.53;6.40;;;24.10;76.60;;;;;;5173502;23;20439;-83
2021/11/02 12:58:25;;;;;;;7.27;6.07;;;23.70;76.60;;;;;;5174197;23;20424;-83
2021/11/02 13:00:28;;;;;;;8.33;6.10;;;23.30;77.70;;;;;;5175501;23;20456;-83
2021/11/02 13:02:34;;;;;;;7.73;6.43;;;23.00;78.20;;;;;;5167486;23;20498;-83
2021/11/02 13:04:41;;;;;;;10.33;6.90;;;23.00;78.40;;;;;;5182854;23;20396;-83
2021/11/02 13:06:47;;;;;;;7.40;5.93;;;23.60;77.40;;;;;;5184102;23;20478;-83
2021/11/02 13:08:57;;;;;;;8.33;5.93;;;23.80;76.90;;;;;;5184016;23;20503;-83
2021/11/02 13:11:10;;;;;;;7.30;5.90;;;23.60;76.50;;;;;;5183737;23;20427;-83
2021/11/02 13:13:16;;;;;;;7.70;5.97;;;22.70;77.90;;;;;;5174884;23;20519;-83
2021/11/02 13:15:21;;;;;;;8.43;6.40;;;21.60;80.20;;;;;;5183819;23;20409;-83
2021/11/02 13:17:28;;;;;;;9.47;6.50;;;20.40;83.10;;;;;;5174754;23;20455;-83
2021/11/02 13:19:33;;;;;;;6.93;5.83;;;19.40;85.50;;;;;;5183754;23;20429;-83
2021/11/02 13:21:36;;;;;;;9.43;8.13;;;18.70;87.30;;;;;;5174484;23;20507;-82
2021/11/02 13:23:43;;;;;;;11.97;9.87;;;18.10;89.10;;;;;;5183467;23;20431;-83
2021/11/02 13:25:46;;;;;;;22.30;17.03;;;17.30;91.90;;;;;;5174265;23;20443;-82
2021/11/02 13:27:54;;;;;;;9.73;7.03;;;16.80;93.70;;;;;;5173511;23;20988;-83
2021/11/02 13:30:18;;;;;;;10.83;6.67;;;16.60;94.80;;;;;;5182684;23;20396;-82
2021/11/02 13:32:22;;;;;;;7.80;5.97;;;16.40;95.60;;;;;;5181759;23;20789;-83
2021/11/02 13:34:35;;;;;;;7.00;5.80;;;16.10;96.50;;;;;;5182202;23;20978;-82
2021/11/02 13:36:41;;;;;;;7.37;5.50;;;16.00;97.20;;;;;;5172995;23;20491;-82
2021/11/02 13:38:44;;;;;;;8.20;5.43;;;15.50;98.30;;;;;;5181198;23;20434;-84
2021/11/02 13:40:48;;;;;;;5.90;5.30;;;15.00;98.30;;;;;;5173679;23;20451;-82
2021/11/02 13:42:53;;;;;;;11.53;5.60;;;14.90;98.30;;;;;;5173133;23;20961;-82
2021/11/02 13:45:00;;;;;;;5.13;4.63;;;14.70;98.30;;;;;;5172729;23;20858;-82
2021/11/02 13:47:09;;;;;;;9.30;5.20;;;14.60;98.30;;;;;;5172480;23;20791;-82
2021/11/02 13:49:13;;;;;;;10.97;5.90;;;14.60;98.30;;;;;;5172604;23;20427;-82
2021/11/02 13:51:19;;;;;;;8.97;5.97;;;14.60;98.30;;;;;;5181024;23;20426;-82
2021/11/02 13:53:23;;;;;;;13.40;6.00;;;14.30;98.30;;;;;;5172621;23;20523;-82
2021/11/02 13:55:27;;;;;;;13.40;6.53;;;14.10;98.30;;;;;;5180138;23;20451;-82
2021/11/02 13:57:30;;;;;;;8.00;4.40;;;14.00;98.30;;;;;;5181117;23;20423;-82
2021/11/02 13:59:34;;;;;;;6.20;5.40;;;13.90;98.30;;;;;;5179670;23;20831;-82
2021/11/02 14:01:45;;;;;;;11.07;5.67;;;13.90;98.30;;;;;;5172247;23;20737;-82
2021/11/02 14:03:54;;;;;;;7.40;5.13;;;14.10;98.30;;;;;;5172672;23;20673;-82
2021/11/02 14:05:59;;;;;;;8.80;5.63;;;14.20;98.30;;;;;;5180407;23;20809;-82
2021/11/02 14:08:02;;;;;;;6.03;4.93;;;14.30;98.30;;;;;;5171671;23;20498;-82
2021/11/02 14:10:10;;;;;;;6.77;5.90;;;14.40;98.30;;;;;;5180472;23;20466;-82
2021/11/02 14:12:25;;;;;;;5.67;4.80;;;14.40;98.30;;;;;;5172429;23;20985;-82
2021/11/02 14:14:36;;;;;;;7.23;5.60;;;14.30;98.30;;;;;;5171533;23;20462;-82
2021/11/02 14:16:42;;;;;;;6.17;5.17;;;14.40;98.30;;;;;;5172152;23;20436;-82
2021/11/02 14:18:45;;;;;;;6.47;4.87;;;15.30;98.30;;;;;;5180413;23;20450;-82
2021/11/02 14:20:54;;;;;;;6.50;4.73;;;16.30;98.30;;;;;;5172673;23;20427;-82
2021/11/02 14:22:57;;;;;;;6.37;4.90;;;17.30;96.80;;;;;;5181170;23;20443;-83
2021/11/02 14:25:11;;;;;;;7.80;4.90;;;18.00;94.10;;;;;;5167142;23;20486;-82
2021/11/02 14:27:21;;;;;;;7.20;5.83;;;18.10;93.60;;;;;;5166537;23;20419;-82
2021/11/02 14:29:50;;;;;;;6.33;5.40;;;18.40;93.00;;;;;;5177749;23;20403;-83
2021/11/02 14:31:54;;;;;;;9.30;5.60;;;18.80;91.30;;;;;;5174983;23;20442;-83
2021/11/02 14:33:57;;;;;;;6.53;4.77;;;18.90;90.60;;;;;;5166010;23;20507;-83
2021/11/02 14:36:03;;;;;;;5.47;4.97;;;19.20;89.70;;;;;;5166467;23;20433;-82
2021/11/02 14:38:08;;;;;;;9.13;5.70;;;19.40;89.50;;;;;;5166759;23;20507;-83
2021/11/02 14:40:26;;;;;;;5.53;4.90;;;19.30;88.50;;;;;;5167405;23;20424;-82
2021/11/02 14:42:50;;;;;;;6.80;5.50;;;19.00;89.30;;;;;;5174984;23;21059;-83
2021/11/02 14:44:54;;;;;;;9.63;5.40;;;18.30;89.70;;;;;;5176219;23;20513;-83
2021/11/02 14:47:02;;;;;;;9.10;5.43;;;17.40;92.30;;;;;;5168261;23;20594;-83
2021/11/02 14:49:10;;;;;;;9.20;5.03;;;17.30;93.90;;;;;;5168324;23;20515;-83
2021/11/02 14:51:37;;;;;;;7.33;5.60;;;17.80;92.90;;;;;;5177434;23;20424;-83
2021/11/02 14:53:41;;;;;;;7.30;5.07;;;18.30;92.20;;;;;;5141243;23;20450;-83
2021/11/02 14:55:49;;;;;;;6.23;4.70;;;18.60;90.10;;;;;;5176795;23;20471;-83
2021/11/02 14:57:53;;;;;;;5.70;4.40;;;18.40;91.00;;;;;;5170227;23;20773;-83
2021/11/02 15:00:00;;;;;;;5.93;4.80;;;18.40;90.70;;;;;;5176210;23;20514;-83
2021/11/02 15:02:15;;;;;;;5.90;4.50;;;18.30;90.30;;;;;;5168446;23;20412;-83
2021/11/02 15:04:20;;;;;;;9.47;4.70;;;18.00;91.50;;;;;;5181206;23;20944;-83
2021/11/02 15:06:34;;;;;;;6.53;4.80;;;18.00;92.10;;;;;;5180932;23;20431;-83
2021/11/02 15:08:38;;;;;;;10.00;4.63;;;18.00;91.90;;;;;;5171897;23;20500;-83
2021/11/02 15:10:45;;;;;;;8.30;5.50;;;18.10;91.10;;;;;;5177468;23;20459;-83
2021/11/02 15:12:50;;;;;;;8.20;4.87;;;17.60;92.20;;;;;;5177679;23;20471;-84
2021/11/02 15:14:53;;;;;;;8.10;5.47;;;17.30;92.80;;;;;;5177058;23;20444;-84
2021/11/02 15:17:03;;;;;;;12.73;7.33;;;16.70;94.30;;;;;;5177112;23;20979;-84
2021/11/02 15:19:19;;;;;;;43.50;28.27;;;16.10;96.30;;;;;;5177771;23;20511;-84
2021/11/02 15:21:30;;;;;;;9.00;6.23;;;15.70;98.00;;;;;;5176346;23;20508;-82
2021/11/02 15:23:43;;;;;;;7.00;4.50;;;15.30;98.30;;;;;;5176680;23;20494;-83